Woden, Texas
Current Conditions -  °F | °C
As of 12:35 PM on Wednesday 26 Nov 2014 (Local Time) from KOCH Reporting Station
Clear Clear  
Wind Chill: 66°   Ceiling: Unl
Heat Index: 66°   Visibility: 10mi
Dew Point: 34°   Wind: 13mph
Humidity: 30%   Direction: 260°W
Pressure: 30.14"   Gusts: 23mph
Location:  31.5°N, 94.53°W
Report Text: KOCH 261835Z AUTO 26011G20KT 10SM CLR 19/01 A3014 RMK AO1
Loading
Personal Weather Stations






























Interactive Weather Map New forecast layout! Learn more

10-Day Weather Forecast

Advertisements
Track Severe Weather on mobile